WetterOnline ( https://www.wetteronline.de )

Wetter aktuell Bönnigheim

Aktuelles Wetter: Mühlacker (245m)

6-stündlich | Neueste Meldungen
Ortszeit Temperatur Wetter
So, 20.10. 20:00 13.6° C bedeckt
So, 20.10. 14:00 17.4° C bedeckt
So, 20.10. 8:00 11.4° C bedeckt
So, 20.10. 2:00 12.5° C leichter Regen
Sa, 19.10. 20:00 13.0° C leichter Regen
Sa, 19.10. 14:00 15.3° C bewölkt
Sa, 19.10. 8:00 11.6° C Sprühregen
Sa, 19.10. 2:00 10.3° C wolkig
Ortszeit Temperatur Wetter
Mo, 21.10. 1:30 13.9° C leicht bewölkt
Mo, 21.10. 1:20 13.9° C leicht bewölkt
Mo, 21.10. 1:10 14.0° C leicht bewölkt
Mo, 21.10. 1:00 14.2° C bewölkt
Mo, 21.10. 0:50 14.2° C bewölkt
Mo, 21.10. 0:40 14.3° C bewölkt
Mo, 21.10. 0:30 13.9° C leicht bewölkt
Mo, 21.10. 0:00 12.8° C wolkig
So, 20.10. 23:30 11.7° C bewölkt
So, 20.10. 23:00 11.3° C leicht bewölkt
So, 20.10. 22:30 11.5° C wolkig
Ortszeit Relative Feuchte Sichtweite
So, 20.10. 20:00 99% 12 km
So, 20.10. 14:00 74% 19 km
So, 20.10. 8:00 100% 3.2 km
So, 20.10. 2:00 99% 5.0 km
Sa, 19.10. 20:00 98% 16 km
Sa, 19.10. 14:00 76% 70 km
Sa, 19.10. 8:00 97% 40 km
Sa, 19.10. 2:00 100% 10 km
Ortszeit Relative Feuchte Sichtweite
Mo, 21.10. 1:30 97% 8 km
Mo, 21.10. 1:20 97% -
Mo, 21.10. 1:10 97% -
Mo, 21.10. 1:00 98% 8 km
Mo, 21.10. 0:50 98% -
Mo, 21.10. 0:40 97% -
Mo, 21.10. 0:30 99% 7 km
Mo, 21.10. 0:00 100% 6 km
So, 20.10. 23:30 100% 4.1 km
So, 20.10. 23:00 100% 2.3 km
So, 20.10. 22:30 100% 3.6 km
Ortszeit Niederschlagsmenge Niederschlagsart
So, 20.10. 20:00 0.0 l/m2 in 12 Std. -
So, 20.10. 14:00 0.0 l/m2 in 6 Std. -
So, 20.10. 8:00 12 l/m2 in 12 Std. Regen
So, 20.10. 2:00 11 l/m2 in 6 Std. Regen
Sa, 19.10. 20:00 2 l/m2 in 12 Std. Regen
Sa, 19.10. 14:00 0.3 l/m2 in 6 Std. Regen
Sa, 19.10. 8:00 1 l/m2 in 12 Std. Regen
Sa, 19.10. 2:00 0.1 l/m2 in 6 Std. Regen
Ortszeit Niederschlagsmenge Niederschlagsart
Mo, 21.10. 1:30 0.0 l/m2 in 1 Std. -
Mo, 21.10. 1:20 keine Meldung -
Mo, 21.10. 1:10 keine Meldung -
Mo, 21.10. 1:00 0.1 l/m2 in 1 Std. Regen
Mo, 21.10. 0:50 keine Meldung -
Mo, 21.10. 0:40 keine Meldung -
Mo, 21.10. 0:30 0.1 l/m2 in 1 Std. Schneeregen
Mo, 21.10. 0:00 0.0 l/m2 in 1 Std. -
So, 20.10. 23:30 0.0 l/m2 in 1 Std. -
So, 20.10. 23:00 0.0 l/m2 in 1 Std. -
So, 20.10. 22:30 0.0 l/m2 in 1 Std. -
Ortszeit Stärke Spitze Richtung
km/h Bft. km/h Grad Sektor
So, 20.10. 20:00 0 0 14 - -
So, 20.10. 14:00 4 1 25 100° O
So, 20.10. 8:00 4 1 14 110° O
So, 20.10. 2:00 6 1 17 80° O
Sa, 19.10. 20:00 4 1 22 120° SO
Sa, 19.10. 14:00 4 1 25 130° SO
Sa, 19.10. 8:00 7 2 25 100° O
Sa, 19.10. 2:00 4 1 18 120° SO
Ortszeit Stärke Spitze Richtung
km/h Bft. km/h Grad Sektor
Mo, 21.10. 1:30 9 2 17 280° W
Mo, 21.10. 1:20 9 2 - 280° W
Mo, 21.10. 1:10 7 2 - 270° W
Mo, 21.10. 1:00 11 2 22 300° NW
Mo, 21.10. 0:50 11 2 - 300° NW
Mo, 21.10. 0:40 14 3 - 300° NW
Mo, 21.10. 0:30 13 3 22 300° NW
Mo, 21.10. 0:00 7 2 11 280° W
So, 20.10. 23:30 6 1 7 330° NW
So, 20.10. 23:00 4 1 11 130° SO
So, 20.10. 22:30 6 1 9 50° NO
Ortszeit Untergrenze Bedeckung Gattung
total tief tief mittel hoch
So, 20.10. 20:00 5100 m 8/8 8/8 - - -
So, 20.10. 14:00 3900 m 8/8 8/8 - - -
So, 20.10. 8:00 3300 m 8/8 8/8 - - -
So, 20.10. 2:00 1260 m 7/8 7/8 - - -
Sa, 19.10. 20:00 2100 m 5/8 5/8 - - -
Sa, 19.10. 14:00 2100 m 7/8 6/8 - - -
Sa, 19.10. 8:00 2100 m 1/8 1/8 - - -
Sa, 19.10. 2:00 3000 m 5/8 5/8 - - -
Ortszeit Bedeckungsgrad in Achtel und Wolkenuntergrenze
Mo, 21.10. 1:30 2(180m)
Mo, 21.10. 1:20 2(180m)
Mo, 21.10. 1:10 4(180m)
Mo, 21.10. 1:00 7(180m)
Mo, 21.10. 0:50 7(180m)
Mo, 21.10. 0:40 6(180m) 7(300m)
Mo, 21.10. 0:30 2(180m) 4(3300m)
Mo, 21.10. 0:00 1(60m) 7(3600m) 7(4200m)
So, 20.10. 23:30 7(4200m) 7(9000m) 7(4200m)
So, 20.10. 23:00 3(4200m) 4(9000m)
So, 20.10. 22:30 6(3900m)
Ortszeit Luftdruck NN (hPa) Tendenz (hPa in 3 Std.)
So, 20.10. 20:00 1009 + 1,1
So, 20.10. 14:00 1007 - 1,4
So, 20.10. 8:00 1009 + 0,8
So, 20.10. 2:00 1010 - 0,6
Sa, 19.10. 20:00 1010 + 0,6
Sa, 19.10. 14:00 1010 - 0,9
Sa, 19.10. 8:00 1011 - 0,8
Sa, 19.10. 2:00 1012 - 0,6
Ortszeit Luftdruck NN (hPa) Tendenz (hPa in 3 Std.)
Mo, 21.10. 1:30 1012 + 3,0
Mo, 21.10. 1:20 1012 keine Meldung
Mo, 21.10. 1:10 1012 keine Meldung
Mo, 21.10. 1:00 1013 + 3,4
Mo, 21.10. 0:50 1013 keine Meldung
Mo, 21.10. 0:40 1013 keine Meldung
Mo, 21.10. 0:30 1013 + 3,4
Mo, 21.10. 0:00 1012 + 3,0
So, 20.10. 23:30 1010 + 0,8
So, 20.10. 23:00 1010 + 1,0
So, 20.10. 22:30 1009 + 0,4
Ortszeit Schneehöhe (cm)
So, 20.10. 20:00 0
So, 20.10. 14:00 0
So, 20.10. 8:00 0
So, 20.10. 2:00 0
Sa, 19.10. 20:00 0
Sa, 19.10. 14:00 0
Sa, 19.10. 8:00 0
Sa, 19.10. 2:00 0
Ortszeit Schneehöhe (cm)
Mo, 21.10. 1:30 0
Mo, 21.10. 1:20 0
Mo, 21.10. 1:10 0
Mo, 21.10. 1:00 0
Mo, 21.10. 0:50 0
Mo, 21.10. 0:40 0
Mo, 21.10. 0:30 0
Mo, 21.10. 0:00 0
So, 20.10. 23:30 0
So, 20.10. 23:00 0
So, 20.10. 22:30 0
Link zu dieser Seite / Seite empfehlen

Das Wetter in ...